Terminal Aerodrome Forecast
Issued by NWS

Home | Current Version | Previous Version | Text Only | Print | Product List | Glossary On
Versions: 1 2 3 4 5 6 7 8 9 10 11 12 13 14
937
FTUS45 KRIW 262327
TAFBPI
TAF
KBPI 262327Z 2700/2724 30011G18KT P6SM SCT110
     FM270100 33007KT P6SM SCT120
     FM270700 VRB05KT P6SM SKC
     FM272000 30013G21KT P6SM FEW120=

USA.gov is the U.S. government's official web portal to all federal, state and local government web resources and services.